sensor_id;sensor_type;location;lat;lon;timestamp;P1;durP1;ratioP1;P2;durP2;ratioP2
44822;SDS011;51097;51.984;5.650;2023-11-19T00:01:26;12.85;;;9.77;;
44822;SDS011;51097;51.984;5.650;2023-11-19T00:03:52;20.63;;;10.02;;
44822;SDS011;51097;51.984;5.650;2023-11-19T00:06:18;14.55;;;9.02;;
44822;SDS011;51097;51.984;5.650;2023-11-19T00:08:44;18.38;;;9.18;;
44822;SDS011;51097;51.984;5.650;2023-11-19T00:11:09;14.18;;;8.23;;
44822;SDS011;51097;51.984;5.650;2023-11-19T00:13:36;14.25;;;8.73;;
44822;SDS011;51097;51.984;5.650;2023-11-19T00:16:02;19.08;;;9.15;;
44822;SDS011;51097;51.984;5.650;2023-11-19T00:18:29;15.27;;;7.75;;
44822;SDS011;51097;51.984;5.650;2023-11-19T00:20:55;12.52;;;7.75;;
44822;SDS011;51097;51.984;5.650;2023-11-19T00:23:20;16.05;;;8.10;;
44822;SDS011;51097;51.984;5.650;2023-11-19T00:25:46;20.95;;;8.70;;
44822;SDS011;51097;51.984;5.650;2023-11-19T00:28:12;21.95;;;8.30;;
44822;SDS011;51097;51.984;5.650;2023-11-19T00:30:38;21.83;;;8.82;;
44822;SDS011;51097;51.984;5.650;2023-11-19T00:33:05;18.67;;;8.02;;
44822;SDS011;51097;51.984;5.650;2023-11-19T00:35:31;26.13;;;7.35;;
44822;SDS011;51097;51.984;5.650;2023-11-19T00:37:57;24.75;;;7.85;;
44822;SDS011;51097;51.984;5.650;2023-11-19T00:40:23;17.40;;;8.25;;
44822;SDS011;51097;51.984;5.650;2023-11-19T00:42:49;15.57;;;6.78;;
44822;SDS011;51097;51.984;5.650;2023-11-19T00:45:14;20.63;;;7.38;;
44822;SDS011;51097;51.984;5.650;2023-11-19T00:47:40;17.75;;;8.38;;
44822;SDS011;51097;51.984;5.650;2023-11-19T00:50:06;16.80;;;7.28;;
44822;SDS011;51097;51.984;5.650;2023-11-19T00:52:36;20.30;;;7.80;;
44822;SDS011;51097;51.984;5.650;2023-11-19T00:55:02;22.40;;;6.97;;
44822;SDS011;51097;51.984;5.650;2023-11-19T00:57:29;13.82;;;5.88;;
44822;SDS011;51097;51.984;5.650;2023-11-19T00:59:55;17.75;;;6.65;;
44822;SDS011;51097;51.984;5.650;2023-11-19T01:02:20;18.08;;;5.50;;
44822;SDS011;51097;51.984;5.650;2023-11-19T01:04:46;13.20;;;5.22;;
44822;SDS011;51097;51.984;5.650;2023-11-19T01:07:12;17.20;;;5.63;;
44822;SDS011;51097;51.984;5.650;2023-11-19T01:09:38;15.88;;;5.53;;
44822;SDS011;51097;51.984;5.650;2023-11-19T01:12:03;17.35;;;6.57;;
44822;SDS011;51097;51.984;5.650;2023-11-19T01:14:29;14.55;;;5.45;;
44822;SDS011;51097;51.984;5.650;2023-11-19T01:16:55;14.15;;;5.57;;
44822;SDS011;51097;51.984;5.650;2023-11-19T01:19:21;19.80;;;5.35;;
44822;SDS011;51097;51.984;5.650;2023-11-19T01:21:47;22.42;;;6.70;;
44822;SDS011;51097;51.984;5.650;2023-11-19T01:24:16;16.15;;;7.03;;
44822;SDS011;51097;51.984;5.650;2023-11-19T01:26:43;18.08;;;5.93;;
44822;SDS011;51097;51.984;5.650;2023-11-19T01:29:10;27.77;;;7.50;;
44822;SDS011;51097;51.984;5.650;2023-11-19T01:31:38;15.57;;;5.90;;
44822;SDS011;51097;51.984;5.650;2023-11-19T01:34:07;17.85;;;6.00;;
44822;SDS011;51097;51.984;5.650;2023-11-19T01:36:34;16.17;;;4.47;;
44822;SDS011;51097;51.984;5.650;2023-11-19T01:38:59;16.88;;;5.57;;
44822;SDS011;51097;51.984;5.650;2023-11-19T01:41:25;19.63;;;5.53;;
44822;SDS011;51097;51.984;5.650;2023-11-19T01:43:51;21.23;;;5.80;;
44822;SDS011;51097;51.984;5.650;2023-11-19T01:46:17;19.80;;;5.63;;
44822;SDS011;51097;51.984;5.650;2023-11-19T01:48:44;18.42;;;5.07;;
44822;SDS011;51097;51.984;5.650;2023-11-19T01:51:11;25.63;;;5.55;;
44822;SDS011;51097;51.984;5.650;2023-11-19T01:53:37;18.30;;;4.90;;
44822;SDS011;51097;51.984;5.650;2023-11-19T01:56:05;18.65;;;4.53;;
44822;SDS011;51097;51.984;5.650;2023-11-19T01:58:36;22.52;;;5.65;;
44822;SDS011;51097;51.984;5.650;2023-11-19T02:01:04;18.98;;;4.75;;
44822;SDS011;51097;51.984;5.650;2023-11-19T02:03:31;20.92;;;5.32;;
44822;SDS011;51097;51.984;5.650;2023-11-19T02:05:57;26.80;;;5.43;;
44822;SDS011;51097;51.984;5.650;2023-11-19T02:08:24;21.60;;;5.60;;
44822;SDS011;51097;51.984;5.650;2023-11-19T02:10:51;25.35;;;5.25;;
44822;SDS011;51097;51.984;5.650;2023-11-19T02:13:17;28.08;;;6.15;;
44822;SDS011;51097;51.984;5.650;2023-11-19T02:15:46;27.25;;;5.32;;
44822;SDS011;51097;51.984;5.650;2023-11-19T02:18:18;19.25;;;4.50;;
44822;SDS011;51097;51.984;5.650;2023-11-19T02:20:51;24.20;;;7.10;;
44822;SDS011;51097;51.984;5.650;2023-11-19T02:23:17;26.38;;;5.47;;
44822;SDS011;51097;51.984;5.650;2023-11-19T02:25:57;26.48;;;6.15;;
44822;SDS011;51097;51.984;5.650;2023-11-19T02:28:34;28.80;;;6.90;;
44822;SDS011;51097;51.984;5.650;2023-11-19T02:31:01;16.63;;;5.53;;
44822;SDS011;51097;51.984;5.650;2023-11-19T02:33:29;25.45;;;5.10;;
44822;SDS011;51097;51.984;5.650;2023-11-19T02:35:55;28.88;;;4.63;;
44822;SDS011;51097;51.984;5.650;2023-11-19T02:38:21;17.40;;;4.85;;
44822;SDS011;51097;51.984;5.650;2023-11-19T02:40:47;17.38;;;4.53;;
44822;SDS011;51097;51.984;5.650;2023-11-19T02:43:12;16.63;;;3.95;;
44822;SDS011;51097;51.984;5.650;2023-11-19T02:45:38;24.27;;;4.55;;
44822;SDS011;51097;51.984;5.650;2023-11-19T02:48:04;24.33;;;5.13;;
44822;SDS011;51097;51.984;5.650;2023-11-19T02:50:31;25.17;;;5.65;;
44822;SDS011;51097;51.984;5.650;2023-11-19T02:52:57;23.30;;;4.47;;
44822;SDS011;51097;51.984;5.650;2023-11-19T02:55:23;23.08;;;6.93;;
44822;SDS011;51097;51.984;5.650;2023-11-19T02:57:49;24.13;;;5.22;;
44822;SDS011;51097;51.984;5.650;2023-11-19T03:00:20;26.25;;;4.35;;
44822;SDS011;51097;51.984;5.650;2023-11-19T03:02:57;22.50;;;6.07;;
44822;SDS011;51097;51.984;5.650;2023-11-19T03:05:42;35.95;;;7.07;;
44822;SDS011;51097;51.984;5.650;2023-11-19T03:08:09;30.08;;;5.18;;
44822;SDS011;51097;51.984;5.650;2023-11-19T03:10:35;28.45;;;5.18;;
44822;SDS011;51097;51.984;5.650;2023-11-19T03:13:01;24.35;;;4.97;;
44822;SDS011;51097;51.984;5.650;2023-11-19T03:15:27;32.67;;;6.28;;
44822;SDS011;51097;51.984;5.650;2023-11-19T03:17:52;28.58;;;5.63;;
44822;SDS011;51097;51.984;5.650;2023-11-19T03:20:19;32.92;;;6.40;;
44822;SDS011;51097;51.984;5.650;2023-11-19T03:22:45;28.33;;;5.65;;
44822;SDS011;51097;51.984;5.650;2023-11-19T03:25:11;37.50;;;6.25;;
44822;SDS011;51097;51.984;5.650;2023-11-19T03:27:38;27.73;;;6.90;;
44822;SDS011;51097;51.984;5.650;2023-11-19T03:30:05;25.55;;;5.97;;
44822;SDS011;51097;51.984;5.650;2023-11-19T03:32:31;20.13;;;4.97;;
44822;SDS011;51097;51.984;5.650;2023-11-19T03:34:58;36.00;;;7.47;;
44822;SDS011;51097;51.984;5.650;2023-11-19T03:37:24;35.15;;;7.43;;
44822;SDS011;51097;51.984;5.650;2023-11-19T03:39:51;25.20;;;5.88;;
44822;SDS011;51097;51.984;5.650;2023-11-19T03:42:18;38.55;;;5.47;;
44822;SDS011;51097;51.984;5.650;2023-11-19T03:44:45;31.27;;;6.07;;
44822;SDS011;51097;51.984;5.650;2023-11-19T03:47:11;35.00;;;6.35;;
44822;SDS011;51097;51.984;5.650;2023-11-19T03:49:36;30.38;;;7.10;;
44822;SDS011;51097;51.984;5.650;2023-11-19T03:52:02;35.60;;;6.55;;
44822;SDS011;51097;51.984;5.650;2023-11-19T03:54:28;38.08;;;7.55;;
44822;SDS011;51097;51.984;5.650;2023-11-19T03:56:54;37.08;;;7.40;;
44822;SDS011;51097;51.984;5.650;2023-11-19T03:59:19;30.90;;;6.78;;
44822;SDS011;51097;51.984;5.650;2023-11-19T04:01:45;28.58;;;6.65;;
44822;SDS011;51097;51.984;5.650;2023-11-19T04:04:11;34.13;;;5.95;;
44822;SDS011;51097;51.984;5.650;2023-11-19T04:06:37;35.33;;;8.05;;
44822;SDS011;51097;51.984;5.650;2023-11-19T04:09:03;34.75;;;6.68;;
44822;SDS011;51097;51.984;5.650;2023-11-19T04:11:28;39.92;;;7.20;;
44822;SDS011;51097;51.984;5.650;2023-11-19T04:13:54;34.75;;;5.55;;
44822;SDS011;51097;51.984;5.650;2023-11-19T04:16:25;41.40;;;7.53;;
44822;SDS011;51097;51.984;5.650;2023-11-19T04:18:53;26.45;;;6.18;;
44822;SDS011;51097;51.984;5.650;2023-11-19T04:21:18;35.67;;;6.28;;
44822;SDS011;51097;51.984;5.650;2023-11-19T04:23:44;28.98;;;5.47;;
44822;SDS011;51097;51.984;5.650;2023-11-19T04:26:09;38.38;;;6.55;;
44822;SDS011;51097;51.984;5.650;2023-11-19T04:28:35;30.02;;;6.10;;
44822;SDS011;51097;51.984;5.650;2023-11-19T04:31:00;40.70;;;8.05;;
44822;SDS011;51097;51.984;5.650;2023-11-19T04:33:26;39.05;;;8.50;;
44822;SDS011;51097;51.984;5.650;2023-11-19T04:35:51;35.42;;;7.13;;
44822;SDS011;51097;51.984;5.650;2023-11-19T04:38:17;38.55;;;6.35;;
44822;SDS011;51097;51.984;5.650;2023-11-19T04:40:43;46.40;;;8.50;;
44822;SDS011;51097;51.984;5.650;2023-11-19T04:43:08;26.50;;;5.82;;
44822;SDS011;51097;51.984;5.650;2023-11-19T04:45:34;31.98;;;6.38;;
44822;SDS011;51097;51.984;5.650;2023-11-19T04:48:00;36.50;;;8.13;;
44822;SDS011;51097;51.984;5.650;2023-11-19T04:50:25;31.95;;;6.63;;
44822;SDS011;51097;51.984;5.650;2023-11-19T04:52:52;30.33;;;6.18;;
44822;SDS011;51097;51.984;5.650;2023-11-19T04:55:18;29.67;;;5.88;;
44822;SDS011;51097;51.984;5.650;2023-11-19T04:57:44;38.53;;;8.05;;
44822;SDS011;51097;51.984;5.650;2023-11-19T05:00:10;27.75;;;6.07;;
44822;SDS011;51097;51.984;5.650;2023-11-19T05:02:36;27.55;;;5.80;;
44822;SDS011;51097;51.984;5.650;2023-11-19T05:05:02;38.47;;;6.55;;
44822;SDS011;51097;51.984;5.650;2023-11-19T05:07:29;37.17;;;7.90;;
44822;SDS011;51097;51.984;5.650;2023-11-19T05:09:55;34.17;;;7.05;;
44822;SDS011;51097;51.984;5.650;2023-11-19T05:12:20;25.80;;;5.75;;
44822;SDS011;51097;51.984;5.650;2023-11-19T05:14:46;38.90;;;6.60;;
44822;SDS011;51097;51.984;5.650;2023-11-19T05:17:15;35.08;;;6.28;;
44822;SDS011;51097;51.984;5.650;2023-11-19T05:19:43;30.13;;;6.47;;
44822;SDS011;51097;51.984;5.650;2023-11-19T05:22:08;29.73;;;6.13;;
44822;SDS011;51097;51.984;5.650;2023-11-19T05:24:34;26.70;;;5.93;;
44822;SDS011;51097;51.984;5.650;2023-11-19T05:27:00;39.50;;;7.60;;
44822;SDS011;51097;51.984;5.650;2023-11-19T05:29:26;28.35;;;6.40;;
44822;SDS011;51097;51.984;5.650;2023-11-19T05:31:52;42.42;;;5.93;;
44822;SDS011;51097;51.984;5.650;2023-11-19T05:34:20;35.03;;;7.22;;
44822;SDS011;51097;51.984;5.650;2023-11-19T05:36:46;32.78;;;6.15;;
44822;SDS011;51097;51.984;5.650;2023-11-19T05:39:12;34.00;;;6.60;;
44822;SDS011;51097;51.984;5.650;2023-11-19T05:41:37;37.58;;;7.18;;
44822;SDS011;51097;51.984;5.650;2023-11-19T05:44:03;31.77;;;6.55;;
44822;SDS011;51097;51.984;5.650;2023-11-19T05:46:28;36.10;;;8.15;;
44822;SDS011;51097;51.984;5.650;2023-11-19T05:48:54;37.88;;;7.10;;
44822;SDS011;51097;51.984;5.650;2023-11-19T05:51:19;32.15;;;6.97;;
44822;SDS011;51097;51.984;5.650;2023-11-19T05:53:45;31.55;;;5.65;;
44822;SDS011;51097;51.984;5.650;2023-11-19T05:56:10;38.78;;;7.13;;
44822;SDS011;51097;51.984;5.650;2023-11-19T05:58:37;35.83;;;5.97;;
44822;SDS011;51097;51.984;5.650;2023-11-19T06:01:04;31.20;;;7.30;;
44822;SDS011;51097;51.984;5.650;2023-11-19T06:03:32;32.08;;;6.72;;
44822;SDS011;51097;51.984;5.650;2023-11-19T06:05:58;35.88;;;9.20;;
44822;SDS011;51097;51.984;5.650;2023-11-19T06:08:23;34.10;;;6.90;;
44822;SDS011;51097;51.984;5.650;2023-11-19T06:10:50;37.88;;;5.95;;
44822;SDS011;51097;51.984;5.650;2023-11-19T06:13:16;39.72;;;9.50;;
44822;SDS011;51097;51.984;5.650;2023-11-19T06:15:42;32.53;;;7.32;;
44822;SDS011;51097;51.984;5.650;2023-11-19T06:18:08;45.13;;;7.07;;
44822;SDS011;51097;51.984;5.650;2023-11-19T06:20:34;34.85;;;7.00;;
44822;SDS011;51097;51.984;5.650;2023-11-19T06:23:00;27.75;;;5.80;;
44822;SDS011;51097;51.984;5.650;2023-11-19T06:25:26;30.50;;;6.32;;
44822;SDS011;51097;51.984;5.650;2023-11-19T06:27:52;40.28;;;6.82;;
44822;SDS011;51097;51.984;5.650;2023-11-19T06:30:18;34.88;;;7.13;;
44822;SDS011;51097;51.984;5.650;2023-11-19T06:32:45;33.83;;;6.57;;
44822;SDS011;51097;51.984;5.650;2023-11-19T06:35:11;33.78;;;6.72;;
44822;SDS011;51097;51.984;5.650;2023-11-19T06:37:40;36.75;;;6.93;;
44822;SDS011;51097;51.984;5.650;2023-11-19T06:40:06;33.50;;;6.90;;
44822;SDS011;51097;51.984;5.650;2023-11-19T06:42:34;50.08;;;7.20;;
44822;SDS011;51097;51.984;5.650;2023-11-19T06:44:59;31.05;;;6.68;;
44822;SDS011;51097;51.984;5.650;2023-11-19T06:47:26;40.70;;;6.30;;
44822;SDS011;51097;51.984;5.650;2023-11-19T06:49:52;33.55;;;6.50;;
44822;SDS011;51097;51.984;5.650;2023-11-19T06:52:18;38.17;;;6.90;;
44822;SDS011;51097;51.984;5.650;2023-11-19T06:54:44;39.08;;;7.30;;
44822;SDS011;51097;51.984;5.650;2023-11-19T06:57:13;34.33;;;6.25;;
44822;SDS011;51097;51.984;5.650;2023-11-19T06:59:38;36.33;;;6.82;;
44822;SDS011;51097;51.984;5.650;2023-11-19T07:02:04;38.63;;;7.40;;
44822;SDS011;51097;51.984;5.650;2023-11-19T07:04:31;37.72;;;7.68;;
44822;SDS011;51097;51.984;5.650;2023-11-19T07:06:58;36.55;;;6.68;;
44822;SDS011;51097;51.984;5.650;2023-11-19T07:09:24;32.97;;;6.40;;
44822;SDS011;51097;51.984;5.650;2023-11-19T07:11:50;35.58;;;6.45;;
44822;SDS011;51097;51.984;5.650;2023-11-19T07:14:17;42.97;;;7.68;;
44822;SDS011;51097;51.984;5.650;2023-11-19T07:16:43;42.90;;;8.82;;
44822;SDS011;51097;51.984;5.650;2023-11-19T07:19:09;43.88;;;7.72;;
44822;SDS011;51097;51.984;5.650;2023-11-19T07:21:35;33.20;;;7.05;;
44822;SDS011;51097;51.984;5.650;2023-11-19T07:24:04;32.05;;;6.10;;
44822;SDS011;51097;51.984;5.650;2023-11-19T07:26:30;40.38;;;6.95;;
44822;SDS011;51097;51.984;5.650;2023-11-19T07:28:56;31.65;;;5.30;;
44822;SDS011;51097;51.984;5.650;2023-11-19T07:31:22;38.50;;;6.15;;
44822;SDS011;51097;51.984;5.650;2023-11-19T07:33:48;39.03;;;7.35;;
44822;SDS011;51097;51.984;5.650;2023-11-19T07:36:14;34.88;;;5.93;;
44822;SDS011;51097;51.984;5.650;2023-11-19T07:38:40;30.13;;;7.68;;
44822;SDS011;51097;51.984;5.650;2023-11-19T07:41:05;36.15;;;7.38;;
44822;SDS011;51097;51.984;5.650;2023-11-19T07:43:32;26.95;;;6.20;;
44822;SDS011;51097;51.984;5.650;2023-11-19T07:45:58;41.67;;;7.38;;
44822;SDS011;51097;51.984;5.650;2023-11-19T07:48:26;46.10;;;6.78;;
44822;SDS011;51097;51.984;5.650;2023-11-19T07:50:52;29.42;;;6.40;;
44822;SDS011;51097;51.984;5.650;2023-11-19T07:53:18;36.55;;;8.07;;
44822;SDS011;51097;51.984;5.650;2023-11-19T07:55:45;28.95;;;6.80;;
44822;SDS011;51097;51.984;5.650;2023-11-19T07:58:11;37.47;;;7.28;;
44822;SDS011;51097;51.984;5.650;2023-11-19T08:00:37;32.38;;;6.07;;
44822;SDS011;51097;51.984;5.650;2023-11-19T08:03:03;35.70;;;6.60;;
44822;SDS011;51097;51.984;5.650;2023-11-19T08:05:30;29.42;;;6.25;;
44822;SDS011;51097;51.984;5.650;2023-11-19T08:07:56;32.67;;;6.20;;
44822;SDS011;51097;51.984;5.650;2023-11-19T08:10:23;39.72;;;7.45;;
44822;SDS011;51097;51.984;5.650;2023-11-19T08:12:48;27.48;;;5.28;;
44822;SDS011;51097;51.984;5.650;2023-11-19T08:15:14;20.10;;;5.72;;
44822;SDS011;51097;51.984;5.650;2023-11-19T08:17:40;32.15;;;6.25;;
44822;SDS011;51097;51.984;5.650;2023-11-19T08:20:06;34.83;;;7.63;;
44822;SDS011;51097;51.984;5.650;2023-11-19T08:22:35;33.95;;;5.75;;
44822;SDS011;51097;51.984;5.650;2023-11-19T08:25:02;32.25;;;6.13;;
44822;SDS011;51097;51.984;5.650;2023-11-19T08:27:29;31.40;;;6.68;;
44822;SDS011;51097;51.984;5.650;2023-11-19T08:29:54;33.72;;;6.40;;
44822;SDS011;51097;51.984;5.650;2023-11-19T08:32:24;29.58;;;6.25;;
44822;SDS011;51097;51.984;5.650;2023-11-19T08:34:50;27.45;;;6.30;;
44822;SDS011;51097;51.984;5.650;2023-11-19T08:37:16;26.00;;;6.03;;
44822;SDS011;51097;51.984;5.650;2023-11-19T08:39:46;23.65;;;5.63;;
44822;SDS011;51097;51.984;5.650;2023-11-19T08:42:12;29.73;;;6.05;;
44822;SDS011;51097;51.984;5.650;2023-11-19T08:44:38;29.40;;;7.45;;
44822;SDS011;51097;51.984;5.650;2023-11-19T08:47:04;39.72;;;8.48;;
44822;SDS011;51097;51.984;5.650;2023-11-19T08:49:29;28.98;;;5.75;;
44822;SDS011;51097;51.984;5.650;2023-11-19T08:51:55;27.63;;;5.50;;
44822;SDS011;51097;51.984;5.650;2023-11-19T08:54:21;29.88;;;6.68;;
44822;SDS011;51097;51.984;5.650;2023-11-19T08:56:47;30.40;;;6.35;;
44822;SDS011;51097;51.984;5.650;2023-11-19T08:59:13;28.60;;;5.95;;
44822;SDS011;51097;51.984;5.650;2023-11-19T09:01:40;29.98;;;5.53;;
44822;SDS011;51097;51.984;5.650;2023-11-19T09:04:06;28.13;;;4.82;;
44822;SDS011;51097;51.984;5.650;2023-11-19T09:06:31;39.13;;;6.70;;
44822;SDS011;51097;51.984;5.650;2023-11-19T09:08:57;32.13;;;6.10;;
44822;SDS011;51097;51.984;5.650;2023-11-19T09:11:26;40.88;;;7.00;;
44822;SDS011;51097;51.984;5.650;2023-11-19T09:13:52;32.00;;;7.32;;
44822;SDS011;51097;51.984;5.650;2023-11-19T09:16:17;37.00;;;6.05;;
44822;SDS011;51097;51.984;5.650;2023-11-19T09:18:43;32.83;;;5.68;;
44822;SDS011;51097;51.984;5.650;2023-11-19T09:21:10;31.77;;;5.63;;
44822;SDS011;51097;51.984;5.650;2023-11-19T09:23:36;38.03;;;6.13;;
44822;SDS011;51097;51.984;5.650;2023-11-19T09:26:04;27.42;;;5.38;;
44822;SDS011;51097;51.984;5.650;2023-11-19T09:28:30;32.85;;;6.30;;
44822;SDS011;51097;51.984;5.650;2023-11-19T09:30:56;30.20;;;6.82;;
44822;SDS011;51097;51.984;5.650;2023-11-19T09:33:22;26.65;;;5.28;;
44822;SDS011;51097;51.984;5.650;2023-11-19T09:35:48;35.75;;;8.30;;
44822;SDS011;51097;51.984;5.650;2023-11-19T09:38:14;30.42;;;6.05;;
44822;SDS011;51097;51.984;5.650;2023-11-19T09:40:40;29.80;;;6.38;;
44822;SDS011;51097;51.984;5.650;2023-11-19T09:43:06;36.75;;;6.30;;
44822;SDS011;51097;51.984;5.650;2023-11-19T09:45:32;32.50;;;5.85;;
44822;SDS011;51097;51.984;5.650;2023-11-19T09:48:21;36.17;;;6.70;;
44822;SDS011;51097;51.984;5.650;2023-11-19T09:50:49;30.00;;;6.35;;
44822;SDS011;51097;51.984;5.650;2023-11-19T09:53:16;31.92;;;6.32;;
44822;SDS011;51097;51.984;5.650;2023-11-19T09:55:42;34.63;;;7.13;;
44822;SDS011;51097;51.984;5.650;2023-11-19T09:58:08;28.33;;;5.35;;
44822;SDS011;51097;51.984;5.650;2023-11-19T10:00:36;32.17;;;5.95;;
44822;SDS011;51097;51.984;5.650;2023-11-19T10:03:02;24.90;;;5.72;;
44822;SDS011;51097;51.984;5.650;2023-11-19T10:05:30;28.48;;;5.85;;
44822;SDS011;51097;51.984;5.650;2023-11-19T10:07:56;37.83;;;6.43;;
44822;SDS011;51097;51.984;5.650;2023-11-19T10:10:22;33.05;;;5.82;;
44822;SDS011;51097;51.984;5.650;2023-11-19T10:12:50;21.58;;;4.10;;
44822;SDS011;51097;51.984;5.650;2023-11-19T10:15:20;33.50;;;6.20;;
44822;SDS011;51097;51.984;5.650;2023-11-19T10:17:56;21.13;;;4.93;;
44822;SDS011;51097;51.984;5.650;2023-11-19T10:20:22;30.58;;;7.60;;
44822;SDS011;51097;51.984;5.650;2023-11-19T10:22:48;34.97;;;5.93;;
44822;SDS011;51097;51.984;5.650;2023-11-19T10:27:50;23.02;;;6.28;;
44822;SDS011;51097;51.984;5.650;2023-11-19T10:30:22;26.65;;;6.80;;
44822;SDS011;51097;51.984;5.650;2023-11-19T10:33:21;25.83;;;5.13;;
44822;SDS011;51097;51.984;5.650;2023-11-19T10:35:52;30.98;;;6.82;;
44822;SDS011;51097;51.984;5.650;2023-11-19T10:38:18;41.42;;;8.07;;
44822;SDS011;51097;51.984;5.650;2023-11-19T10:40:44;33.10;;;7.35;;
44822;SDS011;51097;51.984;5.650;2023-11-19T10:43:10;25.60;;;6.53;;
44822;SDS011;51097;51.984;5.650;2023-11-19T10:45:36;30.90;;;7.10;;
44822;SDS011;51097;51.984;5.650;2023-11-19T10:48:03;32.65;;;4.90;;
44822;SDS011;51097;51.984;5.650;2023-11-19T10:50:32;22.38;;;6.82;;
44822;SDS011;51097;51.984;5.650;2023-11-19T10:52:58;24.65;;;5.97;;
44822;SDS011;51097;51.984;5.650;2023-11-19T10:55:29;18.27;;;5.35;;
44822;SDS011;51097;51.984;5.650;2023-11-19T10:57:59;27.70;;;5.57;;
44822;SDS011;51097;51.984;5.650;2023-11-19T11:00:29;26.38;;;5.15;;
44822;SDS011;51097;51.984;5.650;2023-11-19T11:03:02;31.35;;;6.93;;
44822;SDS011;51097;51.984;5.650;2023-11-19T11:05:35;22.35;;;6.03;;
44822;SDS011;51097;51.984;5.650;2023-11-19T11:08:02;25.13;;;4.22;;
44822;SDS011;51097;51.984;5.650;2023-11-19T11:10:30;29.95;;;5.88;;
44822;SDS011;51097;51.984;5.650;2023-11-19T11:13:02;34.22;;;7.30;;
44822;SDS011;51097;51.984;5.650;2023-11-19T11:15:28;33.25;;;5.03;;
44822;SDS011;51097;51.984;5.650;2023-11-19T11:17:57;33.30;;;7.25;;
44822;SDS011;51097;51.984;5.650;2023-11-19T11:20:31;21.05;;;5.47;;
44822;SDS011;51097;51.984;5.650;2023-11-19T11:39:50;34.05;;;7.47;;
44822;SDS011;51097;51.984;5.650;2023-11-19T11:45:15;31.02;;;5.78;;
44822;SDS011;51097;51.984;5.650;2023-11-19T11:50:14;23.20;;;4.70;;
44822;SDS011;51097;51.984;5.650;2023-11-19T11:57:56;23.95;;;4.93;;
44822;SDS011;51097;51.984;5.650;2023-11-19T12:00:40;25.80;;;5.60;;
44822;SDS011;51097;51.984;5.650;2023-11-19T12:03:08;21.08;;;4.95;;
44822;SDS011;51097;51.984;5.650;2023-11-19T12:05:55;20.73;;;5.35;;
44822;SDS011;51097;51.984;5.650;2023-11-19T12:08:24;19.23;;;4.63;;
44822;SDS011;51097;51.984;5.650;2023-11-19T12:10:51;16.67;;;3.30;;
44822;SDS011;51097;51.984;5.650;2023-11-19T12:13:19;12.48;;;3.97;;
44822;SDS011;51097;51.984;5.650;2023-11-19T12:18:26;18.40;;;3.65;;
44822;SDS011;51097;51.984;5.650;2023-11-19T12:20:52;25.05;;;5.03;;
44822;SDS011;51097;51.984;5.650;2023-11-19T12:23:18;15.63;;;3.75;;
44822;SDS011;51097;51.984;5.650;2023-11-19T12:25:43;18.33;;;4.57;;
44822;SDS011;51097;51.984;5.650;2023-11-19T12:28:14;12.80;;;3.25;;
44822;SDS011;51097;51.984;5.650;2023-11-19T12:30:42;21.23;;;5.03;;
44822;SDS011;51097;51.984;5.650;2023-11-19T12:33:08;26.55;;;4.55;;
44822;SDS011;51097;51.984;5.650;2023-11-19T12:35:38;21.85;;;4.72;;
44822;SDS011;51097;51.984;5.650;2023-11-19T12:38:20;17.27;;;4.15;;
44822;SDS011;51097;51.984;5.650;2023-11-19T12:41:06;19.38;;;4.15;;
44822;SDS011;51097;51.984;5.650;2023-11-19T12:43:33;20.98;;;3.67;;
44822;SDS011;51097;51.984;5.650;2023-11-19T12:46:03;19.85;;;4.75;;
44822;SDS011;51097;51.984;5.650;2023-11-19T12:48:41;18.58;;;3.67;;
44822;SDS011;51097;51.984;5.650;2023-11-19T12:51:07;16.17;;;4.47;;
44822;SDS011;51097;51.984;5.650;2023-11-19T12:53:46;20.48;;;3.60;;
44822;SDS011;51097;51.984;5.650;2023-11-19T12:56:13;22.30;;;4.18;;
44822;SDS011;51097;51.984;5.650;2023-11-19T12:58:40;20.60;;;4.30;;
44822;SDS011;51097;51.984;5.650;2023-11-19T13:01:07;20.58;;;5.00;;
44822;SDS011;51097;51.984;5.650;2023-11-19T13:03:38;16.98;;;4.72;;
44822;SDS011;51097;51.984;5.650;2023-11-19T13:06:04;21.73;;;4.13;;
44822;SDS011;51097;51.984;5.650;2023-11-19T13:08:39;14.93;;;4.95;;
44822;SDS011;51097;51.984;5.650;2023-11-19T13:11:06;21.95;;;5.13;;
44822;SDS011;51097;51.984;5.650;2023-11-19T13:13:33;26.67;;;4.53;;
44822;SDS011;51097;51.984;5.650;2023-11-19T13:16:19;25.10;;;5.63;;
44822;SDS011;51097;51.984;5.650;2023-11-19T13:18:44;25.58;;;6.40;;
44822;SDS011;51097;51.984;5.650;2023-11-19T13:21:10;19.65;;;4.38;;
44822;SDS011;51097;51.984;5.650;2023-11-19T13:23:35;19.10;;;4.60;;
44822;SDS011;51097;51.984;5.650;2023-11-19T13:26:01;23.38;;;5.28;;
44822;SDS011;51097;51.984;5.650;2023-11-19T13:28:27;23.77;;;5.07;;
44822;SDS011;51097;51.984;5.650;2023-11-19T13:30:52;23.95;;;5.82;;
44822;SDS011;51097;51.984;5.650;2023-11-19T13:33:18;30.98;;;5.38;;
44822;SDS011;51097;51.984;5.650;2023-11-19T13:35:44;18.00;;;6.18;;
44822;SDS011;51097;51.984;5.650;2023-11-19T13:38:09;17.80;;;4.57;;
44822;SDS011;51097;51.984;5.650;2023-11-19T13:40:35;30.67;;;6.05;;
44822;SDS011;51097;51.984;5.650;2023-11-19T13:43:00;24.23;;;4.90;;
44822;SDS011;51097;51.984;5.650;2023-11-19T13:45:26;19.50;;;6.10;;
44822;SDS011;51097;51.984;5.650;2023-11-19T13:47:52;26.55;;;6.60;;
44822;SDS011;51097;51.984;5.650;2023-11-19T13:50:17;27.52;;;5.50;;
44822;SDS011;51097;51.984;5.650;2023-11-19T13:52:43;24.70;;;4.50;;
44822;SDS011;51097;51.984;5.650;2023-11-19T13:55:12;16.80;;;4.65;;
44822;SDS011;51097;51.984;5.650;2023-11-19T13:57:38;19.98;;;5.07;;
44822;SDS011;51097;51.984;5.650;2023-11-19T14:00:06;21.77;;;3.90;;
44822;SDS011;51097;51.984;5.650;2023-11-19T14:02:40;20.17;;;4.53;;
44822;SDS011;51097;51.984;5.650;2023-11-19T14:05:06;20.60;;;4.72;;
44822;SDS011;51097;51.984;5.650;2023-11-19T14:07:32;24.33;;;5.50;;
44822;SDS011;51097;51.984;5.650;2023-11-19T14:09:58;20.17;;;3.92;;
44822;SDS011;51097;51.984;5.650;2023-11-19T14:12:23;23.08;;;4.75;;
44822;SDS011;51097;51.984;5.650;2023-11-19T14:14:49;25.35;;;4.55;;
44822;SDS011;51097;51.984;5.650;2023-11-19T14:17:14;19.33;;;3.53;;
44822;SDS011;51097;51.984;5.650;2023-11-19T14:19:41;22.50;;;4.35;;
44822;SDS011;51097;51.984;5.650;2023-11-19T14:22:07;23.50;;;4.55;;
44822;SDS011;51097;51.984;5.650;2023-11-19T14:24:33;16.75;;;4.00;;
44822;SDS011;51097;51.984;5.650;2023-11-19T14:26:59;22.38;;;4.07;;
44822;SDS011;51097;51.984;5.650;2023-11-19T14:29:25;20.20;;;4.47;;
44822;SDS011;51097;51.984;5.650;2023-11-19T14:31:52;23.77;;;4.05;;
44822;SDS011;51097;51.984;5.650;2023-11-19T14:34:19;22.17;;;4.10;;
44822;SDS011;51097;51.984;5.650;2023-11-19T14:36:45;20.10;;;4.18;;
44822;SDS011;51097;51.984;5.650;2023-11-19T14:39:10;17.23;;;4.80;;
44822;SDS011;51097;51.984;5.650;2023-11-19T14:41:36;28.05;;;4.75;;
44822;SDS011;51097;51.984;5.650;2023-11-19T14:44:02;23.60;;;5.13;;
44822;SDS011;51097;51.984;5.650;2023-11-19T14:46:28;24.55;;;4.65;;
44822;SDS011;51097;51.984;5.650;2023-11-19T14:48:54;17.92;;;3.72;;
44822;SDS011;51097;51.984;5.650;2023-11-19T14:51:20;18.00;;;3.92;;
44822;SDS011;51097;51.984;5.650;2023-11-19T14:53:46;28.17;;;4.65;;
44822;SDS011;51097;51.984;5.650;2023-11-19T14:56:12;17.50;;;4.18;;
44822;SDS011;51097;51.984;5.650;2023-11-19T14:58:38;24.08;;;4.55;;
44822;SDS011;51097;51.984;5.650;2023-11-19T15:01:04;18.65;;;3.03;;
44822;SDS011;51097;51.984;5.650;2023-11-19T15:03:30;21.80;;;4.22;;
44822;SDS011;51097;51.984;5.650;2023-11-19T15:05:55;27.73;;;4.45;;